Time;durP1;ratioP1;P1;durP2;ratioP2;P2;SDS_P1;SDS_P2;PMS_P1;PMS_P2;Temp;Humidity;BMP_temperature;BMP_pressure;BME280_temperature;BME280_humidity;BME280_pressure;Samples;Min_cycle;Max_cycle;Signal;HPM_P1;HPM_P2
2024/01/07 00:00:46;;;;;;;35.95;33.30;;;;;;;;;;4994917;28;20210;-78
2024/01/07 00:03:13;;;;;;;36.40;33.60;;;;;;;;;;4995211;28;20283;-78
2024/01/07 00:05:40;;;;;;;38.65;35.28;;;;;;;;;;4995151;28;20280;-76
2024/01/07 00:08:07;;;;;;;34.15;31.52;;;;;;;;;;4999431;28;20233;-77
2024/01/07 00:10:34;;;;;;;34.10;31.55;;;;;;;;;;5014144;28;20206;-78
2024/01/07 00:13:01;;;;;;;36.00;33.30;;;;;;;;;;5014500;28;20205;-77
2024/01/07 00:15:30;;;;;;;33.92;31.17;;;;;;;;;;5014010;28;20267;-77
2024/01/07 00:17:57;;;;;;;35.92;32.72;;;;;;;;;;5020319;28;20624;-78
2024/01/07 00:20:23;;;;;;;37.38;34.63;;;;;;;;;;4995518;28;20210;-78
2024/01/07 00:22:50;;;;;;;31.77;29.45;;;;;;;;;;4994070;28;20206;-78
2024/01/07 00:25:18;;;;;;;35.65;32.95;;;;;;;;;;4994190;28;20226;-78
2024/01/07 00:27:45;;;;;;;34.42;31.83;;;;;;;;;;4994378;28;20222;-78
2024/01/07 00:30:13;;;;;;;34.58;32.08;;;;;;;;;;4994743;28;20264;-78
2024/01/07 00:32:41;;;;;;;33.47;30.98;;;;;;;;;;4994335;28;20206;-78
2024/01/07 00:35:08;;;;;;;34.28;31.98;;;;;;;;;;4994245;28;20206;-78
2024/01/07 00:37:35;;;;;;;33.25;30.65;;;;;;;;;;4993690;28;20234;-78
2024/01/07 00:40:02;;;;;;;33.78;31.25;;;;;;;;;;4994228;28;20214;-78
2024/01/07 00:42:29;;;;;;;31.23;28.67;;;;;;;;;;4993571;28;20662;-79
2024/01/07 00:44:56;;;;;;;33.75;31.15;;;;;;;;;;5005077;28;20261;-79
2024/01/07 00:47:23;;;;;;;32.45;30.10;;;;;;;;;;5014106;28;20237;-78
2024/01/07 00:49:52;;;;;;;33.17;30.73;;;;;;;;;;5013875;28;20209;-77
2024/01/07 00:52:19;;;;;;;31.52;29.33;;;;;;;;;;5013570;28;20264;-79
2024/01/07 00:54:48;;;;;;;31.05;28.75;;;;;;;;;;5013716;28;20202;-78
2024/01/07 00:57:15;;;;;;;30.83;28.35;;;;;;;;;;5020082;28;20776;-77
2024/01/07 00:59:42;;;;;;;29.33;27.00;;;;;;;;;;5033295;28;20213;-78
2024/01/07 01:02:09;;;;;;;31.05;28.65;;;;;;;;;;5032989;28;20645;-78
2024/01/07 01:04:36;;;;;;;32.25;29.83;;;;;;;;;;4998557;28;20211;-78
2024/01/07 01:07:04;;;;;;;30.30;28.10;;;;;;;;;;5000167;28;20229;-79
2024/01/07 01:09:31;;;;;;;30.52;28.33;;;;;;;;;;5013490;28;20213;-78
2024/01/07 01:11:58;;;;;;;32.33;29.98;;;;;;;;;;5012910;28;20209;-77
2024/01/07 01:14:25;;;;;;;30.70;28.50;;;;;;;;;;5013330;28;20276;-78
2024/01/07 01:16:52;;;;;;;27.92;25.77;;;;;;;;;;5013399;28;20225;-78
2024/01/07 01:19:20;;;;;;;29.50;27.50;;;;;;;;;;5013376;28;20634;-79
2024/01/07 01:21:47;;;;;;;26.25;24.50;;;;;;;;;;5012685;28;20300;-77
2024/01/07 01:24:15;;;;;;;26.65;24.63;;;;;;;;;;5012716;28;20201;-79
2024/01/07 01:26:42;;;;;;;29.02;26.92;;;;;;;;;;5015227;28;20237;-79
2024/01/07 01:29:09;;;;;;;27.55;25.50;;;;;;;;;;5032577;28;20251;-79
2024/01/07 01:31:36;;;;;;;28.30;26.30;;;;;;;;;;5032344;28;20283;-78
2024/01/07 01:34:03;;;;;;;28.35;26.33;;;;;;;;;;5032723;28;20212;-77
2024/01/07 01:36:32;;;;;;;28.77;26.80;;;;;;;;;;5032812;28;20201;-78
2024/01/07 01:38:59;;;;;;;28.92;26.92;;;;;;;;;;5032635;28;20227;-77
2024/01/07 01:41:27;;;;;;;28.77;26.70;;;;;;;;;;5032084;28;20213;-78
2024/01/07 01:43:59;;;;;;;27.90;25.80;;;;;;;;;;5032783;28;20197;-79
2024/01/07 01:46:26;;;;;;;29.55;27.48;;;;;;;;;;5032704;28;20300;-77
2024/01/07 01:48:53;;;;;;;28.25;26.25;;;;;;;;;;5032662;28;20672;-79
2024/01/07 01:51:20;;;;;;;27.40;25.48;;;;;;;;;;5032212;28;20208;-79
2024/01/07 01:53:49;;;;;;;26.85;24.92;;;;;;;;;;5032264;28;20621;-78
2024/01/07 01:56:18;;;;;;;26.88;24.95;;;;;;;;;;5032183;28;20205;-77
2024/01/07 01:58:46;;;;;;;26.27;24.27;;;;;;;;;;5032156;28;20251;-78
2024/01/07 02:01:13;;;;;;;25.92;24.02;;;;;;;;;;5032012;28;20231;-77
2024/01/07 02:03:40;;;;;;;25.33;23.55;;;;;;;;;;5032270;28;20286;-77
2024/01/07 02:06:07;;;;;;;26.83;24.83;;;;;;;;;;5031770;28;20224;-78
2024/01/07 02:08:35;;;;;;;27.08;24.80;;;;;;;;;;5024347;28;20237;-78
2024/01/07 02:11:15;;;;;;;24.00;22.35;;;;;;;;;;5031093;28;20731;-78
2024/01/07 02:13:42;;;;;;;26.20;24.20;;;;;;;;;;5032159;28;20193;-77
2024/01/07 02:16:10;;;;;;;26.05;24.20;;;;;;;;;;5032077;28;20197;-78
2024/01/07 02:18:38;;;;;;;25.02;23.30;;;;;;;;;;5031952;28;20208;-78
2024/01/07 02:21:05;;;;;;;24.45;22.63;;;;;;;;;;5031388;28;20308;-79
2024/01/07 02:23:32;;;;;;;25.75;23.85;;;;;;;;;;5031916;28;20247;-79
2024/01/07 02:26:00;;;;;;;23.38;21.80;;;;;;;;;;5031978;28;20294;-77
2024/01/07 02:28:27;;;;;;;26.38;24.33;;;;;;;;;;5031886;28;20251;-77
2024/01/07 02:30:54;;;;;;;24.83;22.92;;;;;;;;;;5031042;28;20213;-77
2024/01/07 02:33:21;;;;;;;25.45;23.65;;;;;;;;;;5032126;28;20622;-79
2024/01/07 02:35:49;;;;;;;25.08;23.13;;;;;;;;;;5031496;28;20209;-80
2024/01/07 02:38:15;;;;;;;24.63;22.85;;;;;;;;;;5031373;28;20233;-78
2024/01/07 02:40:43;;;;;;;26.42;24.50;;;;;;;;;;5030999;28;20208;-78
2024/01/07 02:43:11;;;;;;;24.35;22.67;;;;;;;;;;5031587;28;20212;-78
2024/01/07 02:45:38;;;;;;;25.23;23.42;;;;;;;;;;5030870;28;20665;-77
2024/01/07 02:48:05;;;;;;;25.27;23.42;;;;;;;;;;5030886;28;20763;-79
2024/01/07 02:50:32;;;;;;;25.77;23.88;;;;;;;;;;5030950;28;20209;-79
2024/01/07 02:52:59;;;;;;;24.67;22.98;;;;;;;;;;5031621;28;20208;-78
2024/01/07 02:55:26;;;;;;;27.08;25.10;;;;;;;;;;5031736;28;20258;-77
2024/01/07 02:57:53;;;;;;;23.27;21.88;;;;;;;;;;5008875;28;20230;-77
2024/01/07 03:00:22;;;;;;;26.65;24.65;;;;;;;;;;4991510;28;20214;-79
2024/01/07 03:02:49;;;;;;;26.20;24.20;;;;;;;;;;4993616;28;20217;-78
2024/01/07 03:05:16;;;;;;;25.85;23.85;;;;;;;;;;5030808;28;20267;-78
2024/01/07 03:07:43;;;;;;;25.98;23.85;;;;;;;;;;5030847;28;20286;-77
2024/01/07 03:10:10;;;;;;;23.88;22.27;;;;;;;;;;5031044;28;20266;-77
2024/01/07 03:12:37;;;;;;;26.15;24.25;;;;;;;;;;5030584;28;20262;-80
2024/01/07 03:15:05;;;;;;;26.38;24.38;;;;;;;;;;5031329;28;20212;-78
2024/01/07 03:17:34;;;;;;;24.55;22.77;;;;;;;;;;5030976;28;20578;-77
2024/01/07 03:20:01;;;;;;;25.67;23.88;;;;;;;;;;5030849;28;20208;-78
2024/01/07 03:23:02;;;;;;;26.25;24.35;;;;;;;;;;5029705;28;21024;-77
2024/01/07 03:25:29;;;;;;;26.80;24.80;;;;;;;;;;5029109;28;20208;-79
2024/01/07 03:27:56;;;;;;;25.20;23.30;;;;;;;;;;4991358;28;20234;-77
2024/01/07 03:30:23;;;;;;;26.50;24.45;;;;;;;;;;4991727;28;20210;-79
2024/01/07 03:32:51;;;;;;;28.65;26.10;;;;;;;;;;4991123;28;20304;-77
2024/01/07 03:35:18;;;;;;;27.02;24.80;;;;;;;;;;4991930;28;20232;-78
2024/01/07 03:37:45;;;;;;;27.23;25.13;;;;;;;;;;4991440;28;20300;-78
2024/01/07 03:40:13;;;;;;;28.27;26.02;;;;;;;;;;4991561;28;20670;-77
2024/01/07 03:42:40;;;;;;;27.02;25.02;;;;;;;;;;4991277;28;20236;-77
2024/01/07 03:45:08;;;;;;;26.63;24.65;;;;;;;;;;4991784;28;20272;-77
2024/01/07 03:47:35;;;;;;;27.13;25.02;;;;;;;;;;4991324;28;20585;-78
2024/01/07 03:50:03;;;;;;;25.67;23.67;;;;;;;;;;4991238;28;20613;-78
2024/01/07 03:52:30;;;;;;;26.40;24.40;;;;;;;;;;4990533;28;20198;-79
2024/01/07 03:54:57;;;;;;;28.23;26.05;;;;;;;;;;4991521;28;20202;-79
2024/01/07 03:57:24;;;;;;;28.30;26.05;;;;;;;;;;4990852;28;20636;-77
2024/01/07 03:59:51;;;;;;;27.48;25.48;;;;;;;;;;4991621;28;20194;-78
2024/01/07 04:02:18;;;;;;;26.42;24.23;;;;;;;;;;4991004;28;20222;-77
2024/01/07 04:04:45;;;;;;;24.38;22.50;;;;;;;;;;4991288;28;20284;-78
2024/01/07 04:07:13;;;;;;;25.92;24.02;;;;;;;;;;4990808;28;20230;-78
2024/01/07 04:09:40;;;;;;;24.88;23.10;;;;;;;;;;5007054;28;20264;-77
2024/01/07 04:12:07;;;;;;;27.45;25.35;;;;;;;;;;5011768;28;20201;-77
2024/01/07 04:14:34;;;;;;;22.98;21.60;;;;;;;;;;5014747;28;20283;-78
2024/01/07 04:17:01;;;;;;;26.85;24.77;;;;;;;;;;5014159;28;20291;-77
2024/01/07 04:19:28;;;;;;;27.10;25.05;;;;;;;;;;5014910;28;20213;-78
2024/01/07 04:21:55;;;;;;;27.10;24.95;;;;;;;;;;5013971;28;20202;-78
2024/01/07 04:24:26;;;;;;;27.15;25.15;;;;;;;;;;5014841;28;20259;-79
2024/01/07 04:26:52;;;;;;;24.88;23.02;;;;;;;;;;5014222;28;20229;-78
2024/01/07 04:29:19;;;;;;;28.55;26.27;;;;;;;;;;5014597;28;20355;-78
2024/01/07 04:31:46;;;;;;;25.13;23.13;;;;;;;;;;5014061;28;20255;-78
2024/01/07 04:34:13;;;;;;;27.20;25.25;;;;;;;;;;5014016;28;20205;-78
2024/01/07 04:36:40;;;;;;;24.98;23.27;;;;;;;;;;5013909;28;20288;-77
2024/01/07 04:39:09;;;;;;;23.75;21.70;;;;;;;;;;5014091;28;20259;-78
2024/01/07 04:41:38;;;;;;;30.30;28.42;;;;;;;;;;5013663;28;20248;-78
2024/01/07 04:44:05;;;;;;;29.02;26.83;;;;;;;;;;5014256;28;20572;-78
2024/01/07 04:46:35;;;;;;;30.67;28.70;;;;;;;;;;5013860;28;20218;-77
2024/01/07 04:49:02;;;;;;;26.88;25.30;;;;;;;;;;5013878;28;20674;-78
2024/01/07 04:51:28;;;;;;;26.70;25.10;;;;;;;;;;5013323;28;20267;-79
2024/01/07 04:53:55;;;;;;;29.95;27.65;;;;;;;;;;5013660;28;20284;-77
2024/01/07 04:56:22;;;;;;;27.75;25.85;;;;;;;;;;5013449;28;20201;-78
2024/01/07 04:58:51;;;;;;;28.15;26.27;;;;;;;;;;5013688;28;20760;-79
2024/01/07 05:01:18;;;;;;;29.15;27.35;;;;;;;;;;5013009;28;20252;-78
2024/01/07 05:03:45;;;;;;;30.25;28.05;;;;;;;;;;5013485;28;20202;-79
2024/01/07 05:06:12;;;;;;;27.52;25.83;;;;;;;;;;5013413;28;20210;-77
2024/01/07 05:08:39;;;;;;;27.20;25.50;;;;;;;;;;5013114;28;20312;-78
2024/01/07 05:11:06;;;;;;;27.83;26.23;;;;;;;;;;5012904;28;20240;-77
2024/01/07 05:13:33;;;;;;;28.05;26.25;;;;;;;;;;5013303;28;20206;-78
2024/01/07 05:16:02;;;;;;;27.08;25.30;;;;;;;;;;5013865;28;20267;-78
2024/01/07 05:18:29;;;;;;;26.27;24.88;;;;;;;;;;4993471;28;20313;-78
2024/01/07 05:20:56;;;;;;;28.10;26.15;;;;;;;;;;4993437;28;20260;-79
2024/01/07 05:23:23;;;;;;;27.92;25.92;;;;;;;;;;4993269;28;20210;-77
2024/01/07 05:25:50;;;;;;;28.25;26.15;;;;;;;;;;4993624;28;20187;-77
2024/01/07 05:28:19;;;;;;;26.40;24.80;;;;;;;;;;4993252;28;20230;-77
2024/01/07 05:30:46;;;;;;;27.92;26.08;;;;;;;;;;4993042;28;20263;-77
2024/01/07 05:33:14;;;;;;;24.10;22.60;;;;;;;;;;4993469;28;20206;-79
2024/01/07 05:35:41;;;;;;;26.60;24.70;;;;;;;;;;4993532;28;20206;-79
2024/01/07 05:38:08;;;;;;;28.95;26.50;;;;;;;;;;4993222;28;20253;-77
2024/01/07 05:40:35;;;;;;;26.17;24.30;;;;;;;;;;4992598;28;20211;-78
2024/01/07 05:43:02;;;;;;;25.05;23.45;;;;;;;;;;4993286;28;20194;-77
2024/01/07 05:45:29;;;;;;;26.60;24.60;;;;;;;;;;4993193;28;20206;-77
2024/01/07 05:47:56;;;;;;;25.38;23.42;;;;;;;;;;4993036;28;20241;-79
2024/01/07 05:50:24;;;;;;;25.35;23.75;;;;;;;;;;4993051;28;20206;-78
2024/01/07 05:52:51;;;;;;;23.70;22.05;;;;;;;;;;4992896;28;20233;-77
2024/01/07 05:55:19;;;;;;;26.80;24.70;;;;;;;;;;4993147;28;20237;-78
2024/01/07 05:57:46;;;;;;;24.30;22.40;;;;;;;;;;4992726;28;20768;-77
2024/01/07 06:00:13;;;;;;;24.67;22.98;;;;;;;;;;4992969;28;20663;-77
2024/01/07 06:02:40;;;;;;;23.27;21.77;;;;;;;;;;4994823;28;20206;-78
2024/01/07 06:05:07;;;;;;;24.38;22.60;;;;;;;;;;4992577;28;20217;-78
2024/01/07 06:07:36;;;;;;;22.73;21.27;;;;;;;;;;4992500;28;20320;-78
2024/01/07 06:10:03;;;;;;;25.92;24.13;;;;;;;;;;4999224;28;20256;-77
2024/01/07 06:12:30;;;;;;;24.80;23.15;;;;;;;;;;4992090;28;20214;-77
2024/01/07 06:14:57;;;;;;;21.27;20.02;;;;;;;;;;4992705;28;20206;-77
2024/01/07 06:17:23;;;;;;;21.15;19.58;;;;;;;;;;4992640;28;20256;-77
2024/01/07 06:19:50;;;;;;;21.17;19.98;;;;;;;;;;4992832;28;20210;-78
2024/01/07 06:22:17;;;;;;;23.00;21.33;;;;;;;;;;4992190;28;20210;-77
2024/01/07 06:24:46;;;;;;;24.63;22.73;;;;;;;;;;4992697;28;20210;-77
2024/01/07 06:27:13;;;;;;;23.15;21.65;;;;;;;;;;4991766;28;20296;-78
2024/01/07 06:29:40;;;;;;;22.65;20.88;;;;;;;;;;4992387;28;20206;-78
2024/01/07 06:32:07;;;;;;;24.98;23.25;;;;;;;;;;4992096;28;20210;-77
2024/01/07 06:34:34;;;;;;;24.65;22.95;;;;;;;;;;4991988;28;20210;-78
2024/01/07 06:37:01;;;;;;;23.65;21.98;;;;;;;;;;5014163;28;20233;-79
2024/01/07 06:39:28;;;;;;;25.00;23.08;;;;;;;;;;5010924;28;20221;-79
2024/01/07 06:41:56;;;;;;;22.90;21.40;;;;;;;;;;5010969;28;20213;-79
2024/01/07 06:44:23;;;;;;;23.42;21.73;;;;;;;;;;5011824;28;20675;-77
2024/01/07 06:46:50;;;;;;;24.17;22.50;;;;;;;;;;5011477;28;20713;-78
2024/01/07 06:49:17;;;;;;;24.13;22.45;;;;;;;;;;5011891;28;20610;-77
2024/01/07 06:51:44;;;;;;;22.33;20.98;;;;;;;;;;5011270;28;20616;-79
2024/01/07 06:54:11;;;;;;;22.15;20.60;;;;;;;;;;5011721;28;20573;-78
2024/01/07 06:56:38;;;;;;;22.90;21.60;;;;;;;;;;5011715;28;20237;-78
2024/01/07 06:59:07;;;;;;;22.38;20.98;;;;;;;;;;5011637;28;20203;-77
2024/01/07 07:01:34;;;;;;;20.67;19.42;;;;;;;;;;5011553;28;20669;-77
2024/01/07 07:04:01;;;;;;;20.67;19.52;;;;;;;;;;5011549;28;20201;-77
2024/01/07 07:06:28;;;;;;;21.30;20.00;;;;;;;;;;5011293;28;20217;-78
2024/01/07 07:08:55;;;;;;;19.38;18.38;;;;;;;;;;5003835;28;20234;-78
2024/01/07 07:11:22;;;;;;;22.05;20.63;;;;;;;;;;4991494;28;20202;-77
2024/01/07 07:13:49;;;;;;;21.42;19.85;;;;;;;;;;4992013;28;20205;-77
2024/01/07 07:16:17;;;;;;;19.52;18.35;;;;;;;;;;4991859;28;20256;-79
2024/01/07 07:18:44;;;;;;;20.80;19.55;;;;;;;;;;4990997;28;20214;-76
2024/01/07 07:21:11;;;;;;;21.98;20.60;;;;;;;;;;4990739;28;20213;-78
2024/01/07 07:23:38;;;;;;;20.75;19.35;;;;;;;;;;4991388;28;20218;-76
2024/01/07 07:26:06;;;;;;;20.42;19.23;;;;;;;;;;4991264;28;20214;-76
2024/01/07 07:28:33;;;;;;;21.30;20.10;;;;;;;;;;4995407;28;20232;-77
2024/01/07 07:31:00;;;;;;;21.45;20.15;;;;;;;;;;5010426;28;20248;-76
2024/01/07 07:33:29;;;;;;;20.08;18.92;;;;;;;;;;5010989;28;20214;-76
2024/01/07 07:35:55;;;;;;;19.88;18.67;;;;;;;;;;5001088;28;20214;-78
2024/01/07 07:38:22;;;;;;;20.10;18.90;;;;;;;;;;5008449;28;20225;-77
2024/01/07 07:40:52;;;;;;;19.15;17.95;;;;;;;;;;5010252;28;20214;-77
2024/01/07 07:43:19;;;;;;;18.85;17.73;;;;;;;;;;5011003;28;20225;-77
2024/01/07 07:45:46;;;;;;;21.23;19.77;;;;;;;;;;5012709;28;20202;-79
2024/01/07 07:48:13;;;;;;;19.00;17.90;;;;;;;;;;5015739;28;20533;-79
2024/01/07 07:50:42;;;;;;;19.23;18.23;;;;;;;;;;5015425;28;20209;-79
2024/01/07 07:53:09;;;;;;;18.65;17.75;;;;;;;;;;5016051;28;20210;-79
2024/01/07 07:55:36;;;;;;;19.92;18.80;;;;;;;;;;5015272;28;20260;-78
2024/01/07 07:58:03;;;;;;;20.17;19.08;;;;;;;;;;5015040;28;20217;-77
2024/01/07 08:00:30;;;;;;;21.02;19.52;;;;;;;;;;5014164;28;20212;-79
2024/01/07 08:02:57;;;;;;;20.27;19.17;;;;;;;;;;5015359;28;20205;-78
2024/01/07 08:05:24;;;;;;;21.45;20.10;;;;;;;;;;5015728;28;20263;-79
2024/01/07 08:07:52;;;;;;;21.30;20.00;;;;;;;;;;5006737;28;20344;-79
2024/01/07 08:10:19;;;;;;;20.95;19.75;;;;;;;;;;4995284;28;20214;-80
2024/01/07 08:12:46;;;;;;;19.35;18.27;;;;;;;;;;4994996;28;20225;-79
2024/01/07 08:15:13;;;;;;;19.88;18.65;;;;;;;;;;4995511;28;20214;-77
2024/01/07 08:17:42;;;;;;;21.42;20.23;;;;;;;;;;4994768;28;20230;-76
2024/01/07 08:20:10;;;;;;;20.52;19.42;;;;;;;;;;4994717;28;20674;-77
2024/01/07 08:22:37;;;;;;;18.90;17.88;;;;;;;;;;4994766;28;20261;-77
2024/01/07 08:25:05;;;;;;;20.73;19.63;;;;;;;;;;4994728;28;20257;-79
2024/01/07 08:27:32;;;;;;;21.20;19.80;;;;;;;;;;5002127;28;20228;-78
2024/01/07 08:29:59;;;;;;;20.20;19.00;;;;;;;;;;5034130;28;20303;-79
2024/01/07 08:32:26;;;;;;;21.33;20.05;;;;;;;;;;5033496;28;20279;-78
2024/01/07 08:34:54;;;;;;;19.88;18.77;;;;;;;;;;5023257;28;20283;-77
2024/01/07 08:37:21;;;;;;;22.27;21.00;;;;;;;;;;5001163;28;20234;-77
2024/01/07 08:39:48;;;;;;;21.13;19.83;;;;;;;;;;5000380;28;20206;-78
2024/01/07 08:42:16;;;;;;;22.10;20.75;;;;;;;;;;5013255;28;20205;-78
2024/01/07 08:44:43;;;;;;;20.45;19.35;;;;;;;;;;5001438;28;20214;-76
2024/01/07 08:47:10;;;;;;;20.90;19.85;;;;;;;;;;4994084;28;20245;-77
2024/01/07 08:49:38;;;;;;;23.02;21.67;;;;;;;;;;5005876;28;20245;-77
2024/01/07 08:52:05;;;;;;;22.30;20.90;;;;;;;;;;5013166;28;20658;-77
2024/01/07 08:54:33;;;;;;;21.67;20.38;;;;;;;;;;5013589;28;20224;-78
2024/01/07 08:57:00;;;;;;;20.92;19.73;;;;;;;;;;5010061;28;20238;-77
2024/01/07 08:59:28;;;;;;;21.92;19.95;;;;;;;;;;5013263;28;20580;-76
2024/01/07 09:01:55;;;;;;;21.85;20.48;;;;;;;;;;5009658;28;20284;-76
2024/01/07 09:04:23;;;;;;;32.58;30.05;;;;;;;;;;5013385;28;20571;-77
2024/01/07 09:06:50;;;;;;;21.52;20.23;;;;;;;;;;5018821;28;20252;-78
2024/01/07 09:09:17;;;;;;;22.42;21.02;;;;;;;;;;5017681;28;20304;-78
2024/01/07 09:11:45;;;;;;;24.17;22.45;;;;;;;;;;5012856;28;20252;-77
2024/01/07 09:14:14;;;;;;;21.63;20.30;;;;;;;;;;5013015;28;20220;-77
2024/01/07 09:16:42;;;;;;;20.92;19.52;;;;;;;;;;5013684;28;20299;-77
2024/01/07 09:19:09;;;;;;;22.25;20.77;;;;;;;;;;5013645;28;20213;-77
2024/01/07 09:21:36;;;;;;;26.45;24.85;;;;;;;;;;5012192;28;20218;-77
2024/01/07 09:24:03;;;;;;;22.02;20.33;;;;;;;;;;5012876;28;20206;-76
2024/01/07 09:26:30;;;;;;;21.83;20.02;;;;;;;;;;5012979;28;20259;-76
2024/01/07 09:28:58;;;;;;;21.95;20.60;;;;;;;;;;4998515;28;20226;-77
2024/01/07 09:31:25;;;;;;;21.95;20.40;;;;;;;;;;4992342;28;20892;-75
2024/01/07 09:33:53;;;;;;;23.30;21.90;;;;;;;;;;4992942;28;20358;-76
2024/01/07 09:36:20;;;;;;;22.35;21.10;;;;;;;;;;4992622;28;20772;-75
2024/01/07 09:38:47;;;;;;;21.85;20.55;;;;;;;;;;4992671;28;20610;-76
2024/01/07 09:41:14;;;;;;;23.65;22.30;;;;;;;;;;4998420;28;20739;-77
2024/01/07 09:43:41;;;;;;;25.80;24.02;;;;;;;;;;5012588;28;20252;-76
2024/01/07 09:46:08;;;;;;;20.80;19.70;;;;;;;;;;5012551;28;20205;-77
2024/01/07 09:48:35;;;;;;;22.83;21.50;;;;;;;;;;5011890;28;20287;-75
2024/01/07 09:51:04;;;;;;;22.38;21.02;;;;;;;;;;5011468;28;20209;-76
2024/01/07 09:53:33;;;;;;;22.63;21.23;;;;;;;;;;5012040;28;20617;-77
2024/01/07 09:56:06;;;;;;;22.08;20.77;;;;;;;;;;5012885;28;20292;-78
2024/01/07 09:58:33;;;;;;;23.08;21.77;;;;;;;;;;5023846;28;20301;-77
2024/01/07 10:01:00;;;;;;;21.95;20.33;;;;;;;;;;5019245;28;20268;-76
2024/01/07 10:03:27;;;;;;;22.85;21.50;;;;;;;;;;5011911;28;20751;-75
2024/01/07 10:05:54;;;;;;;22.08;20.88;;;;;;;;;;5012054;28;20573;-76
2024/01/07 10:08:23;;;;;;;22.75;21.35;;;;;;;;;;5011532;28;20331;-76
2024/01/07 10:10:50;;;;;;;24.88;23.38;;;;;;;;;;5010239;28;20263;-76
2024/01/07 10:13:17;;;;;;;21.60;20.40;;;;;;;;;;5011529;28;20283;-76
2024/01/07 10:15:44;;;;;;;23.98;22.58;;;;;;;;;;5011842;28;20209;-77
2024/01/07 10:18:11;;;;;;;21.27;20.08;;;;;;;;;;5011167;28;20229;-77
2024/01/07 10:20:38;;;;;;;21.50;20.23;;;;;;;;;;5011146;28;20214;-76
2024/01/07 10:23:07;;;;;;;23.08;21.58;;;;;;;;;;5012200;28;20205;-77
2024/01/07 10:25:37;;;;;;;22.00;20.70;;;;;;;;;;5011952;28;20213;-76
2024/01/07 10:28:04;;;;;;;22.23;20.73;;;;;;;;;;5012427;28;20248;-77
2024/01/07 10:30:32;;;;;;;22.60;21.30;;;;;;;;;;4996295;28;20696;-77
2024/01/07 10:32:59;;;;;;;20.95;19.75;;;;;;;;;;4992497;28;20237;-77
2024/01/07 10:35:29;;;;;;;21.10;19.90;;;;;;;;;;4995282;28;20206;-77
2024/01/07 10:37:56;;;;;;;21.80;20.40;;;;;;;;;;5010499;28;20228;-77
2024/01/07 10:40:23;;;;;;;21.80;20.55;;;;;;;;;;5011935;28;20206;-81
2024/01/07 10:42:52;;;;;;;21.80;20.55;;;;;;;;;;4993132;28;20700;-81
2024/01/07 10:45:19;;;;;;;22.70;21.08;;;;;;;;;;4993331;28;20596;-76
2024/01/07 10:47:50;;;;;;;21.25;20.15;;;;;;;;;;4992992;28;20234;-76
2024/01/07 10:50:18;;;;;;;22.73;21.48;;;;;;;;;;5007698;28;20229;-77
2024/01/07 10:52:49;;;;;;;22.23;21.02;;;;;;;;;;5007727;28;20218;-76
2024/01/07 10:55:19;;;;;;;22.17;20.98;;;;;;;;;;4993067;28;20269;-76
2024/01/07 10:57:47;;;;;;;22.27;21.08;;;;;;;;;;4998008;28;20252;-77
2024/01/07 11:00:18;;;;;;;23.35;22.05;;;;;;;;;;5015852;28;20213;-78
2024/01/07 11:02:50;;;;;;;21.75;20.45;;;;;;;;;;5016207;28;20271;-78
2024/01/07 11:05:21;;;;;;;23.02;21.58;;;;;;;;;;4992336;28;20194;-75
2024/01/07 11:07:53;;;;;;;20.80;19.73;;;;;;;;;;4991151;28;20585;-76
2024/01/07 11:10:22;;;;;;;21.85;20.65;;;;;;;;;;4991389;28;20861;-76
2024/01/07 11:12:54;;;;;;;21.33;20.10;;;;;;;;;;4991140;28;20257;-75
2024/01/07 11:15:36;;;;;;;21.48;20.27;;;;;;;;;;4991515;28;20296;-77
2024/01/07 11:18:05;;;;;;;22.65;21.25;;;;;;;;;;4990807;28;20238;-75
2024/01/07 11:20:33;;;;;;;33.30;31.00;;;;;;;;;;4992030;28;20203;-76
2024/01/07 11:23:15;;;;;;;22.63;21.42;;;;;;;;;;4991504;28;20214;-76
2024/01/07 11:25:41;;;;;;;22.20;20.90;;;;;;;;;;5002898;28;20260;-80
2024/01/07 11:28:08;;;;;;;22.05;20.65;;;;;;;;;;5017799;28;20282;-75
2024/01/07 11:30:41;;;;;;;23.27;21.70;;;;;;;;;;5024919;28;20268;-83
2024/01/07 11:33:15;;;;;;;22.15;20.85;;;;;;;;;;5015049;28;20201;-78
2024/01/07 11:35:56;;;;;;;22.50;21.10;;;;;;;;;;5014457;28;20731;-82
2024/01/07 11:38:23;;;;;;;21.65;20.45;;;;;;;;;;5013103;28;20260;-87
2024/01/07 11:40:50;;;;;;;22.15;20.88;;;;;;;;;;5014677;28;20264;-79
2024/01/07 11:43:18;;;;;;;20.30;19.10;;;;;;;;;;5013150;28;20263;-79
2024/01/07 11:45:45;;;;;;;21.02;19.83;;;;;;;;;;5013265;28;20284;-77
2024/01/07 11:48:13;;;;;;;20.52;19.42;;;;;;;;;;5013337;28;20647;-77
2024/01/07 11:50:40;;;;;;;22.05;20.60;;;;;;;;;;5012380;28;20237;-79
2024/01/07 11:53:08;;;;;;;21.40;20.20;;;;;;;;;;5013450;28;20205;-79
2024/01/07 11:55:36;;;;;;;21.02;19.83;;;;;;;;;;5013124;28;20202;-78
2024/01/07 11:58:03;;;;;;;24.23;22.73;;;;;;;;;;5013066;28;20297;-77
2024/01/07 12:00:33;;;;;;;22.30;20.80;;;;;;;;;;5012604;28;20218;-77
2024/01/07 12:03:00;;;;;;;21.98;20.67;;;;;;;;;;5013045;28;20201;-77
2024/01/07 12:05:28;;;;;;;20.95;19.73;;;;;;;;;;5012570;28;20216;-76
2024/01/07 12:07:56;;;;;;;20.90;19.75;;;;;;;;;;5012371;28;20698;-79
2024/01/07 12:10:24;;;;;;;22.45;21.15;;;;;;;;;;5012511;28;20320;-77
2024/01/07 12:12:51;;;;;;;21.70;20.33;;;;;;;;;;4997569;28;20257;-77
2024/01/07 12:15:18;;;;;;;21.35;20.02;;;;;;;;;;4994182;28;20620;-78
2024/01/07 12:17:57;;;;;;;21.05;19.90;;;;;;;;;;4992717;28;20314;-77
2024/01/07 12:20:23;;;;;;;20.98;19.63;;;;;;;;;;4993800;28;20266;-78
2024/01/07 12:22:52;;;;;;;24.27;22.00;;;;;;;;;;4995370;28;20264;-82
2024/01/07 12:25:23;;;;;;;21.85;20.52;;;;;;;;;;4994514;28;20199;-78
2024/01/07 12:27:52;;;;;;;21.35;20.05;;;;;;;;;;4992940;28;20233;-77
2024/01/07 12:30:19;;;;;;;22.55;21.35;;;;;;;;;;4993497;28;20694;-77
2024/01/07 12:32:47;;;;;;;22.10;20.83;;;;;;;;;;4993932;28;20766;-77
2024/01/07 12:35:14;;;;;;;22.52;21.23;;;;;;;;;;5016094;28;20213;-77
2024/01/07 12:37:41;;;;;;;21.58;20.38;;;;;;;;;;5016008;28;20237;-77
2024/01/07 12:40:10;;;;;;;21.67;20.48;;;;;;;;;;4998215;28;20221;-78
2024/01/07 12:42:39;;;;;;;23.40;21.90;;;;;;;;;;4996288;28;20632;-78
2024/01/07 12:45:09;;;;;;;21.25;19.85;;;;;;;;;;4997203;28;20206;-79
2024/01/07 12:47:36;;;;;;;21.45;20.35;;;;;;;;;;4996901;28;20242;-79
2024/01/07 12:50:03;;;;;;;22.75;21.40;;;;;;;;;;4996694;28;20280;-77
2024/01/07 12:52:30;;;;;;;21.85;20.58;;;;;;;;;;4996326;28;20673;-78
2024/01/07 12:54:57;;;;;;;22.40;20.90;;;;;;;;;;4997255;28;20268;-78
2024/01/07 12:57:26;;;;;;;22.48;21.17;;;;;;;;;;4996256;28;20257;-79
2024/01/07 12:59:53;;;;;;;22.40;21.10;;;;;;;;;;4997154;28;20609;-77
2024/01/07 13:02:20;;;;;;;22.52;21.23;;;;;;;;;;4996136;28;20214;-79
2024/01/07 13:04:47;;;;;;;22.25;20.77;;;;;;;;;;4996546;28;20252;-79
2024/01/07 13:07:14;;;;;;;21.60;20.30;;;;;;;;;;4996075;28;20648;-79
2024/01/07 13:09:41;;;;;;;21.25;20.02;;;;;;;;;;4996217;28;20234;-78
2024/01/07 13:12:08;;;;;;;21.05;19.75;;;;;;;;;;4995682;28;20211;-78
2024/01/07 13:14:36;;;;;;;21.23;19.92;;;;;;;;;;4996837;28;20261;-77
2024/01/07 13:17:03;;;;;;;21.13;19.92;;;;;;;;;;4996668;28;20296;-77
2024/01/07 13:19:31;;;;;;;23.30;21.75;;;;;;;;;;4995810;28;20272;-77
2024/01/07 13:21:58;;;;;;;20.58;19.45;;;;;;;;;;4998283;28;20229;-79
2024/01/07 13:24:25;;;;;;;23.08;21.67;;;;;;;;;;5035174;28;20742;-77
2024/01/07 13:26:52;;;;;;;21.50;19.95;;;;;;;;;;5035154;28;20298;-77
2024/01/07 13:29:19;;;;;;;21.17;19.98;;;;;;;;;;5026055;28;20238;-81
2024/01/07 13:31:48;;;;;;;21.92;20.42;;;;;;;;;;5016975;28;20275;-78
2024/01/07 13:34:15;;;;;;;20.42;19.23;;;;;;;;;;5016832;28;20935;-88
2024/01/07 13:36:42;;;;;;;21.13;19.92;;;;;;;;;;5016350;28;20221;-78
2024/01/07 13:39:09;;;;;;;20.40;19.30;;;;;;;;;;5008668;28;20272;-77
2024/01/07 13:41:36;;;;;;;22.00;20.70;;;;;;;;;;5014334;28;20218;-78
2024/01/07 13:44:03;;;;;;;21.45;20.15;;;;;;;;;;5015298;28;20202;-78
2024/01/07 13:46:30;;;;;;;21.45;20.05;;;;;;;;;;5015016;28;20260;-76
2024/01/07 13:48:59;;;;;;;21.45;20.25;;;;;;;;;;5015463;28;20232;-78
2024/01/07 13:51:26;;;;;;;21.50;20.38;;;;;;;;;;5014212;28;20220;-78
2024/01/07 13:53:53;;;;;;;21.27;20.08;;;;;;;;;;5033768;28;20257;-78
2024/01/07 13:56:20;;;;;;;22.20;20.48;;;;;;;;;;5031976;28;20213;-77
2024/01/07 13:58:49;;;;;;;19.25;18.25;;;;;;;;;;5014751;28;20804;-77
2024/01/07 14:01:17;;;;;;;22.08;20.77;;;;;;;;;;5015543;28;20256;-79
2024/01/07 14:03:43;;;;;;;23.13;21.73;;;;;;;;;;5016678;28;20296;-79
2024/01/07 14:06:12;;;;;;;21.35;20.15;;;;;;;;;;5016243;28;20214;-80
2024/01/07 14:08:39;;;;;;;20.80;19.50;;;;;;;;;;5014725;28;20221;-77
2024/01/07 14:11:07;;;;;;;21.90;20.40;;;;;;;;;;5012153;28;20233;-76
2024/01/07 14:13:34;;;;;;;21.30;20.15;;;;;;;;;;5011888;28;20213;-77
2024/01/07 14:16:01;;;;;;;21.15;19.90;;;;;;;;;;5012163;28;20221;-76
2024/01/07 14:18:28;;;;;;;21.23;19.80;;;;;;;;;;5027786;28;20668;-76